sensor_id;sensor_type;location;lat;lon;timestamp;P1;durP1;ratioP1;P2;durP2;ratioP2
11064;SDS011;5585;52.530;7.320;2023-09-07T00:02:27;2.50;;;2.00;;
11064;SDS011;5585;52.530;7.320;2023-09-07T00:04:55;2.35;;;1.83;;
11064;SDS011;5585;52.530;7.320;2023-09-07T00:07:22;2.10;;;1.80;;
11064;SDS011;5585;52.530;7.320;2023-09-07T00:09:48;2.08;;;1.77;;
11064;SDS011;5585;52.530;7.320;2023-09-07T00:12:15;1.85;;;1.75;;
11064;SDS011;5585;52.530;7.320;2023-09-07T00:14:44;3.08;;;1.88;;
11064;SDS011;5585;52.530;7.320;2023-09-07T00:17:11;2.60;;;1.80;;
11064;SDS011;5585;52.530;7.320;2023-09-07T00:19:38;2.33;;;1.80;;
11064;SDS011;5585;52.530;7.320;2023-09-07T00:22:06;3.08;;;1.70;;
11064;SDS011;5585;52.530;7.320;2023-09-07T00:24:34;3.67;;;1.88;;
11064;SDS011;5585;52.530;7.320;2023-09-07T00:27:01;2.67;;;1.95;;
11064;SDS011;5585;52.530;7.320;2023-09-07T00:29:30;2.85;;;1.88;;
11064;SDS011;5585;52.530;7.320;2023-09-07T00:31:57;2.35;;;1.83;;
11064;SDS011;5585;52.530;7.320;2023-09-07T00:34:23;2.13;;;1.92;;
11064;SDS011;5585;52.530;7.320;2023-09-07T00:36:50;2.92;;;1.95;;
11064;SDS011;5585;52.530;7.320;2023-09-07T00:39:18;3.17;;;2.20;;
11064;SDS011;5585;52.530;7.320;2023-09-07T00:41:44;2.72;;;1.92;;
11064;SDS011;5585;52.530;7.320;2023-09-07T00:44:11;3.17;;;2.00;;
11064;SDS011;5585;52.530;7.320;2023-09-07T00:46:37;2.80;;;2.10;;
11064;SDS011;5585;52.530;7.320;2023-09-07T00:49:04;3.53;;;2.03;;
11064;SDS011;5585;52.530;7.320;2023-09-07T00:51:30;2.80;;;2.30;;
11064;SDS011;5585;52.530;7.320;2023-09-07T00:53:57;2.90;;;2.00;;
11064;SDS011;5585;52.530;7.320;2023-09-07T00:56:25;2.40;;;1.90;;
11064;SDS011;5585;52.530;7.320;2023-09-07T00:58:52;3.58;;;2.30;;
11064;SDS011;5585;52.530;7.320;2023-09-07T01:01:19;2.00;;;1.75;;
11064;SDS011;5585;52.530;7.320;2023-09-07T01:03:46;2.58;;;2.15;;
11064;SDS011;5585;52.530;7.320;2023-09-07T01:06:15;3.35;;;1.88;;
11064;SDS011;5585;52.530;7.320;2023-09-07T01:08:43;4.72;;;2.45;;
11064;SDS011;5585;52.530;7.320;2023-09-07T01:11:13;2.65;;;2.08;;
11064;SDS011;5585;52.530;7.320;2023-09-07T01:13:42;4.43;;;2.10;;
11064;SDS011;5585;52.530;7.320;2023-09-07T01:16:08;2.15;;;2.03;;
11064;SDS011;5585;52.530;7.320;2023-09-07T01:18:35;2.33;;;2.13;;
11064;SDS011;5585;52.530;7.320;2023-09-07T01:21:03;3.28;;;2.20;;
11064;SDS011;5585;52.530;7.320;2023-09-07T01:23:31;3.05;;;2.28;;
11064;SDS011;5585;52.530;7.320;2023-09-07T01:25:58;3.20;;;2.30;;
11064;SDS011;5585;52.530;7.320;2023-09-07T01:28:24;2.20;;;2.00;;
11064;SDS011;5585;52.530;7.320;2023-09-07T01:30:51;2.40;;;2.20;;
11064;SDS011;5585;52.530;7.320;2023-09-07T01:33:18;3.30;;;2.17;;
11064;SDS011;5585;52.530;7.320;2023-09-07T01:35:44;3.03;;;2.17;;
11064;SDS011;5585;52.530;7.320;2023-09-07T01:38:11;2.47;;;2.10;;
11064;SDS011;5585;52.530;7.320;2023-09-07T01:40:39;6.50;;;2.08;;
11064;SDS011;5585;52.530;7.320;2023-09-07T01:43:05;2.47;;;2.28;;
11064;SDS011;5585;52.530;7.320;2023-09-07T01:45:32;2.25;;;1.80;;
11064;SDS011;5585;52.530;7.320;2023-09-07T01:47:59;4.07;;;2.30;;
11064;SDS011;5585;52.530;7.320;2023-09-07T01:50:26;2.72;;;2.53;;
11064;SDS011;5585;52.530;7.320;2023-09-07T01:52:52;4.05;;;2.00;;
11064;SDS011;5585;52.530;7.320;2023-09-07T01:55:19;3.53;;;2.13;;
11064;SDS011;5585;52.530;7.320;2023-09-07T01:57:47;3.38;;;2.30;;
11064;SDS011;5585;52.530;7.320;2023-09-07T02:00:13;2.60;;;2.00;;
11064;SDS011;5585;52.530;7.320;2023-09-07T02:02:40;3.10;;;2.30;;
11064;SDS011;5585;52.530;7.320;2023-09-07T02:05:06;2.15;;;1.95;;
11064;SDS011;5585;52.530;7.320;2023-09-07T02:07:36;3.42;;;2.55;;
11064;SDS011;5585;52.530;7.320;2023-09-07T02:10:02;4.75;;;2.63;;
11064;SDS011;5585;52.530;7.320;2023-09-07T02:12:29;2.92;;;2.33;;
11064;SDS011;5585;52.530;7.320;2023-09-07T02:14:58;2.90;;;2.13;;
11064;SDS011;5585;52.530;7.320;2023-09-07T02:17:25;2.88;;;2.30;;
11064;SDS011;5585;52.530;7.320;2023-09-07T02:19:51;4.47;;;2.50;;
11064;SDS011;5585;52.530;7.320;2023-09-07T02:22:18;2.90;;;2.40;;
11064;SDS011;5585;52.530;7.320;2023-09-07T02:24:44;2.90;;;2.30;;
11064;SDS011;5585;52.530;7.320;2023-09-07T02:27:11;2.55;;;2.35;;
11064;SDS011;5585;52.530;7.320;2023-09-07T02:29:38;3.70;;;2.38;;
11064;SDS011;5585;52.530;7.320;2023-09-07T02:32:06;4.35;;;2.30;;
11064;SDS011;5585;52.530;7.320;2023-09-07T02:34:34;3.60;;;2.90;;
11064;SDS011;5585;52.530;7.320;2023-09-07T02:37:01;4.20;;;2.95;;
11064;SDS011;5585;52.530;7.320;2023-09-07T02:39:28;3.83;;;2.50;;
11064;SDS011;5585;52.530;7.320;2023-09-07T02:41:54;2.83;;;2.25;;
11064;SDS011;5585;52.530;7.320;2023-09-07T02:44:21;4.47;;;2.47;;
11064;SDS011;5585;52.530;7.320;2023-09-07T02:46:47;2.42;;;2.22;;
11064;SDS011;5585;52.530;7.320;2023-09-07T02:49:15;2.75;;;2.55;;
11064;SDS011;5585;52.530;7.320;2023-09-07T02:51:41;2.88;;;2.50;;
11064;SDS011;5585;52.530;7.320;2023-09-07T02:54:08;2.78;;;2.47;;
11064;SDS011;5585;52.530;7.320;2023-09-07T02:56:34;2.88;;;2.50;;
11064;SDS011;5585;52.530;7.320;2023-09-07T02:59:01;2.75;;;2.45;;
11064;SDS011;5585;52.530;7.320;2023-09-07T03:01:28;2.95;;;2.65;;
11064;SDS011;5585;52.530;7.320;2023-09-07T03:03:54;3.03;;;2.72;;
11064;SDS011;5585;52.530;7.320;2023-09-07T03:06:22;4.13;;;2.70;;
11064;SDS011;5585;52.530;7.320;2023-09-07T03:08:49;3.20;;;2.90;;
11064;SDS011;5585;52.530;7.320;2023-09-07T03:11:17;2.90;;;2.70;;
11064;SDS011;5585;52.530;7.320;2023-09-07T03:13:43;3.38;;;2.55;;
11064;SDS011;5585;52.530;7.320;2023-09-07T03:16:10;3.47;;;2.70;;
11064;SDS011;5585;52.530;7.320;2023-09-07T03:18:36;3.42;;;3.13;;
11064;SDS011;5585;52.530;7.320;2023-09-07T03:21:03;3.72;;;2.88;;
11064;SDS011;5585;52.530;7.320;2023-09-07T03:23:31;3.10;;;2.80;;
11064;SDS011;5585;52.530;7.320;2023-09-07T03:25:58;3.38;;;3.00;;
11064;SDS011;5585;52.530;7.320;2023-09-07T03:28:25;3.92;;;3.17;;
11064;SDS011;5585;52.530;7.320;2023-09-07T03:30:52;3.72;;;3.28;;
11064;SDS011;5585;52.530;7.320;2023-09-07T03:33:19;3.38;;;3.08;;
11064;SDS011;5585;52.530;7.320;2023-09-07T03:35:46;3.38;;;3.03;;
11064;SDS011;5585;52.530;7.320;2023-09-07T03:38:12;3.65;;;3.35;;
11064;SDS011;5585;52.530;7.320;2023-09-07T03:40:43;3.42;;;3.13;;
11064;SDS011;5585;52.530;7.320;2023-09-07T03:43:10;4.95;;;3.42;;
11064;SDS011;5585;52.530;7.320;2023-09-07T03:45:36;5.85;;;3.33;;
11064;SDS011;5585;52.530;7.320;2023-09-07T03:48:03;2.88;;;2.65;;
11064;SDS011;5585;52.530;7.320;2023-09-07T03:50:30;3.97;;;3.53;;
11064;SDS011;5585;52.530;7.320;2023-09-07T03:52:56;3.75;;;3.45;;
11064;SDS011;5585;52.530;7.320;2023-09-07T03:55:23;4.00;;;3.00;;
11064;SDS011;5585;52.530;7.320;2023-09-07T03:57:51;3.67;;;3.25;;
11064;SDS011;5585;52.530;7.320;2023-09-07T04:00:17;3.72;;;3.40;;
11064;SDS011;5585;52.530;7.320;2023-09-07T04:02:45;4.22;;;3.50;;
11064;SDS011;5585;52.530;7.320;2023-09-07T04:05:11;4.28;;;3.17;;
11064;SDS011;5585;52.530;7.320;2023-09-07T04:07:38;3.42;;;3.13;;
11064;SDS011;5585;52.530;7.320;2023-09-07T04:10:04;3.92;;;3.50;;
11064;SDS011;5585;52.530;7.320;2023-09-07T04:12:31;3.67;;;2.97;;
11064;SDS011;5585;52.530;7.320;2023-09-07T04:15:00;3.60;;;3.30;;
11064;SDS011;5585;52.530;7.320;2023-09-07T04:17:26;3.80;;;3.50;;
11064;SDS011;5585;52.530;7.320;2023-09-07T04:19:52;4.05;;;3.40;;
11064;SDS011;5585;52.530;7.320;2023-09-07T04:22:19;4.47;;;4.07;;
11064;SDS011;5585;52.530;7.320;2023-09-07T04:24:47;4.63;;;3.70;;
11064;SDS011;5585;52.530;7.320;2023-09-07T04:27:13;5.13;;;3.90;;
11064;SDS011;5585;52.530;7.320;2023-09-07T04:29:40;4.35;;;3.33;;
11064;SDS011;5585;52.530;7.320;2023-09-07T04:32:08;4.43;;;3.40;;
11064;SDS011;5585;52.530;7.320;2023-09-07T04:34:34;5.30;;;3.80;;
11064;SDS011;5585;52.530;7.320;2023-09-07T04:37:01;4.38;;;3.97;;
11064;SDS011;5585;52.530;7.320;2023-09-07T04:39:27;4.03;;;3.63;;
11064;SDS011;5585;52.530;7.320;2023-09-07T04:41:53;5.50;;;3.97;;
11064;SDS011;5585;52.530;7.320;2023-09-07T04:44:20;5.30;;;3.83;;
11064;SDS011;5585;52.530;7.320;2023-09-07T04:46:46;4.20;;;3.72;;
11064;SDS011;5585;52.530;7.320;2023-09-07T04:49:14;6.05;;;4.20;;
11064;SDS011;5585;52.530;7.320;2023-09-07T04:51:43;4.40;;;3.97;;
11064;SDS011;5585;52.530;7.320;2023-09-07T04:54:10;4.78;;;3.85;;
11064;SDS011;5585;52.530;7.320;2023-09-07T04:56:37;4.47;;;3.60;;
11064;SDS011;5585;52.530;7.320;2023-09-07T04:59:04;5.70;;;4.45;;
11064;SDS011;5585;52.530;7.320;2023-09-07T05:01:30;4.00;;;3.60;;
11064;SDS011;5585;52.530;7.320;2023-09-07T05:03:57;3.75;;;3.45;;
11064;SDS011;5585;52.530;7.320;2023-09-07T05:06:25;3.92;;;3.60;;
11064;SDS011;5585;52.530;7.320;2023-09-07T05:08:51;4.30;;;3.90;;
11064;SDS011;5585;52.530;7.320;2023-09-07T05:11:18;4.32;;;3.70;;
11064;SDS011;5585;52.530;7.320;2023-09-07T05:13:44;4.57;;;4.10;;
11064;SDS011;5585;52.530;7.320;2023-09-07T05:16:11;5.63;;;3.97;;
11064;SDS011;5585;52.530;7.320;2023-09-07T05:18:37;4.57;;;4.10;;
11064;SDS011;5585;52.530;7.320;2023-09-07T05:21:13;4.88;;;4.40;;
11064;SDS011;5585;52.530;7.320;2023-09-07T05:23:41;4.53;;;4.13;;
11064;SDS011;5585;52.530;7.320;2023-09-07T05:26:08;4.40;;;4.00;;
11064;SDS011;5585;52.530;7.320;2023-09-07T05:28:34;5.57;;;4.30;;
11064;SDS011;5585;52.530;7.320;2023-09-07T05:31:01;4.75;;;4.35;;
11064;SDS011;5585;52.530;7.320;2023-09-07T05:33:27;5.72;;;4.60;;
11064;SDS011;5585;52.530;7.320;2023-09-07T05:35:54;5.15;;;4.63;;
11064;SDS011;5585;52.530;7.320;2023-09-07T05:38:20;4.45;;;4.03;;
11064;SDS011;5585;52.530;7.320;2023-09-07T05:40:48;4.30;;;3.90;;
11064;SDS011;5585;52.530;7.320;2023-09-07T05:43:19;4.78;;;3.97;;
11064;SDS011;5585;52.530;7.320;2023-09-07T05:45:45;5.95;;;4.03;;
11064;SDS011;5585;52.530;7.320;2023-09-07T05:48:12;4.88;;;4.38;;
11064;SDS011;5585;52.530;7.320;2023-09-07T05:50:41;5.15;;;4.50;;
11064;SDS011;5585;52.530;7.320;2023-09-07T05:53:08;5.07;;;4.53;;
11064;SDS011;5585;52.530;7.320;2023-09-07T05:55:34;4.13;;;3.83;;
11064;SDS011;5585;52.530;7.320;2023-09-07T05:58:05;5.30;;;4.18;;
11064;SDS011;5585;52.530;7.320;2023-09-07T06:00:32;7.57;;;4.35;;
11064;SDS011;5585;52.530;7.320;2023-09-07T06:02:58;9.68;;;4.22;;
11064;SDS011;5585;52.530;7.320;2023-09-07T06:05:25;5.30;;;3.97;;
11064;SDS011;5585;52.530;7.320;2023-09-07T06:07:51;3.70;;;3.40;;
11064;SDS011;5585;52.530;7.320;2023-09-07T06:10:21;3.92;;;3.60;;
11064;SDS011;5585;52.530;7.320;2023-09-07T06:12:47;4.53;;;3.67;;
11064;SDS011;5585;52.530;7.320;2023-09-07T06:15:16;3.47;;;3.17;;
11064;SDS011;5585;52.530;7.320;2023-09-07T06:17:42;3.78;;;3.45;;
11064;SDS011;5585;52.530;7.320;2023-09-07T06:20:11;4.30;;;3.90;;
11064;SDS011;5585;52.530;7.320;2023-09-07T06:22:38;5.90;;;4.20;;
11064;SDS011;5585;52.530;7.320;2023-09-07T06:25:05;4.82;;;3.97;;
11064;SDS011;5585;52.530;7.320;2023-09-07T06:27:31;4.88;;;4.15;;
11064;SDS011;5585;52.530;7.320;2023-09-07T06:29:58;4.25;;;3.83;;
11064;SDS011;5585;52.530;7.320;2023-09-07T06:32:26;3.95;;;3.55;;
11064;SDS011;5585;52.530;7.320;2023-09-07T06:34:52;4.15;;;3.40;;
11064;SDS011;5585;52.530;7.320;2023-09-07T06:37:19;4.10;;;3.70;;
11064;SDS011;5585;52.530;7.320;2023-09-07T06:39:45;3.75;;;3.30;;
11064;SDS011;5585;52.530;7.320;2023-09-07T06:42:12;6.50;;;4.30;;
11064;SDS011;5585;52.530;7.320;2023-09-07T06:44:40;8.32;;;4.07;;
11064;SDS011;5585;52.530;7.320;2023-09-07T06:47:08;3.78;;;3.40;;
11064;SDS011;5585;52.530;7.320;2023-09-07T06:49:36;4.35;;;3.95;;
11064;SDS011;5585;52.530;7.320;2023-09-07T06:52:03;3.95;;;3.65;;
11064;SDS011;5585;52.530;7.320;2023-09-07T06:54:30;4.35;;;3.30;;
11064;SDS011;5585;52.530;7.320;2023-09-07T06:56:57;4.57;;;3.67;;
11064;SDS011;5585;52.530;7.320;2023-09-07T06:59:23;3.72;;;3.42;;
11064;SDS011;5585;52.530;7.320;2023-09-07T07:01:50;3.55;;;3.15;;
11064;SDS011;5585;52.530;7.320;2023-09-07T07:04:16;4.70;;;3.10;;
11064;SDS011;5585;52.530;7.320;2023-09-07T07:06:44;3.45;;;3.15;;
11064;SDS011;5585;52.530;7.320;2023-09-07T07:09:11;3.22;;;2.92;;
11064;SDS011;5585;52.530;7.320;2023-09-07T07:11:37;3.63;;;3.33;;
11064;SDS011;5585;52.530;7.320;2023-09-07T07:14:06;4.38;;;3.70;;
11064;SDS011;5585;52.530;7.320;2023-09-07T07:16:33;3.08;;;2.72;;
11064;SDS011;5585;52.530;7.320;2023-09-07T07:19:00;3.13;;;2.83;;
11064;SDS011;5585;52.530;7.320;2023-09-07T07:21:26;3.40;;;3.05;;
11064;SDS011;5585;52.530;7.320;2023-09-07T07:23:54;3.65;;;3.20;;
11064;SDS011;5585;52.530;7.320;2023-09-07T07:26:21;3.47;;;3.17;;
11064;SDS011;5585;52.530;7.320;2023-09-07T07:28:47;3.60;;;3.30;;
11064;SDS011;5585;52.530;7.320;2023-09-07T07:31:14;3.25;;;2.97;;
11064;SDS011;5585;52.530;7.320;2023-09-07T07:33:40;3.10;;;2.90;;
11064;SDS011;5585;52.530;7.320;2023-09-07T07:36:07;2.78;;;2.58;;
11064;SDS011;5585;52.530;7.320;2023-09-07T07:38:34;4.43;;;2.80;;
11064;SDS011;5585;52.530;7.320;2023-09-07T07:41:04;4.00;;;2.97;;
11064;SDS011;5585;52.530;7.320;2023-09-07T07:43:32;2.90;;;2.70;;
11064;SDS011;5585;52.530;7.320;2023-09-07T07:45:58;3.40;;;3.00;;
11064;SDS011;5585;52.530;7.320;2023-09-07T07:48:25;4.35;;;3.08;;
11064;SDS011;5585;52.530;7.320;2023-09-07T07:50:53;4.03;;;3.47;;
11064;SDS011;5585;52.530;7.320;2023-09-07T07:53:20;4.72;;;3.40;;
11064;SDS011;5585;52.530;7.320;2023-09-07T07:55:46;4.13;;;2.72;;
11064;SDS011;5585;52.530;7.320;2023-09-07T07:58:15;3.05;;;2.75;;
11064;SDS011;5585;52.530;7.320;2023-09-07T08:00:41;3.20;;;2.67;;
11064;SDS011;5585;52.530;7.320;2023-09-07T08:03:10;4.40;;;2.67;;
11064;SDS011;5585;52.530;7.320;2023-09-07T08:05:36;3.22;;;2.60;;
11064;SDS011;5585;52.530;7.320;2023-09-07T08:08:04;3.72;;;3.03;;
11064;SDS011;5585;52.530;7.320;2023-09-07T08:10:33;2.97;;;2.67;;
11064;SDS011;5585;52.530;7.320;2023-09-07T08:13:00;3.00;;;2.55;;
11064;SDS011;5585;52.530;7.320;2023-09-07T08:15:31;3.45;;;3.15;;
11064;SDS011;5585;52.530;7.320;2023-09-07T08:17:58;4.32;;;3.13;;
11064;SDS011;5585;52.530;7.320;2023-09-07T08:20:24;2.90;;;2.70;;
11064;SDS011;5585;52.530;7.320;2023-09-07T08:22:51;3.42;;;3.13;;
11064;SDS011;5585;52.530;7.320;2023-09-07T08:25:17;3.33;;;3.03;;
11064;SDS011;5585;52.530;7.320;2023-09-07T08:27:45;4.15;;;2.80;;
11064;SDS011;5585;52.530;7.320;2023-09-07T08:30:13;4.88;;;3.40;;
11064;SDS011;5585;52.530;7.320;2023-09-07T08:32:42;3.38;;;3.08;;
11064;SDS011;5585;52.530;7.320;2023-09-07T08:35:09;3.08;;;2.60;;
11064;SDS011;5585;52.530;7.320;2023-09-07T08:37:38;3.85;;;2.78;;
11064;SDS011;5585;52.530;7.320;2023-09-07T08:40:05;2.95;;;2.63;;
11064;SDS011;5585;52.530;7.320;2023-09-07T08:42:34;3.63;;;3.13;;
11064;SDS011;5585;52.530;7.320;2023-09-07T08:45:02;3.55;;;3.08;;
11064;SDS011;5585;52.530;7.320;2023-09-07T08:47:31;2.83;;;2.63;;
11064;SDS011;5585;52.530;7.320;2023-09-07T08:50:00;3.25;;;2.90;;
11064;SDS011;5585;52.530;7.320;2023-09-07T08:52:27;3.17;;;2.72;;
11064;SDS011;5585;52.530;7.320;2023-09-07T08:54:57;3.47;;;2.90;;
11064;SDS011;5585;52.530;7.320;2023-09-07T08:57:26;3.42;;;3.13;;
11064;SDS011;5585;52.530;7.320;2023-09-07T08:59:53;3.72;;;2.63;;
11064;SDS011;5585;52.530;7.320;2023-09-07T09:02:20;3.10;;;2.80;;
11064;SDS011;5585;52.530;7.320;2023-09-07T09:04:46;3.35;;;3.05;;
11064;SDS011;5585;52.530;7.320;2023-09-07T09:07:14;3.97;;;3.15;;
11064;SDS011;5585;52.530;7.320;2023-09-07T09:09:40;3.65;;;2.72;;
11064;SDS011;5585;52.530;7.320;2023-09-07T09:12:07;2.90;;;2.70;;
11064;SDS011;5585;52.530;7.320;2023-09-07T09:14:34;3.28;;;2.97;;
11064;SDS011;5585;52.530;7.320;2023-09-07T09:17:00;3.15;;;2.83;;
11064;SDS011;5585;52.530;7.320;2023-09-07T09:19:30;3.00;;;2.67;;
11064;SDS011;5585;52.530;7.320;2023-09-07T09:21:57;3.58;;;2.80;;
11064;SDS011;5585;52.530;7.320;2023-09-07T09:24:25;3.85;;;2.83;;
11064;SDS011;5585;52.530;7.320;2023-09-07T09:26:52;4.25;;;3.08;;
11064;SDS011;5585;52.530;7.320;2023-09-07T09:29:21;3.85;;;2.92;;
11064;SDS011;5585;52.530;7.320;2023-09-07T09:31:47;3.85;;;2.60;;
11064;SDS011;5585;52.530;7.320;2023-09-07T09:34:14;3.28;;;2.97;;
11064;SDS011;5585;52.530;7.320;2023-09-07T09:36:41;3.95;;;3.20;;
11064;SDS011;5585;52.530;7.320;2023-09-07T09:39:08;3.33;;;3.00;;
11064;SDS011;5585;52.530;7.320;2023-09-07T09:41:36;3.60;;;3.30;;
11064;SDS011;5585;52.530;7.320;2023-09-07T09:44:04;4.30;;;3.03;;
11064;SDS011;5585;52.530;7.320;2023-09-07T09:46:31;3.08;;;2.78;;
11064;SDS011;5585;52.530;7.320;2023-09-07T09:48:58;3.65;;;3.30;;
11064;SDS011;5585;52.530;7.320;2023-09-07T09:51:25;3.28;;;2.97;;
11064;SDS011;5585;52.530;7.320;2023-09-07T09:53:51;3.20;;;2.90;;
11064;SDS011;5585;52.530;7.320;2023-09-07T09:56:19;3.08;;;2.75;;
11064;SDS011;5585;52.530;7.320;2023-09-07T09:58:48;4.15;;;3.30;;
11064;SDS011;5585;52.530;7.320;2023-09-07T10:01:14;3.78;;;3.20;;
11064;SDS011;5585;52.530;7.320;2023-09-07T10:03:42;3.20;;;2.90;;
11064;SDS011;5585;52.530;7.320;2023-09-07T10:06:11;3.65;;;3.35;;
11064;SDS011;5585;52.530;7.320;2023-09-07T10:08:39;4.05;;;3.28;;
11064;SDS011;5585;52.530;7.320;2023-09-07T10:11:08;3.40;;;2.90;;
11064;SDS011;5585;52.530;7.320;2023-09-07T10:13:35;4.72;;;3.63;;
11064;SDS011;5585;52.530;7.320;2023-09-07T10:16:03;3.40;;;3.10;;
11064;SDS011;5585;52.530;7.320;2023-09-07T10:18:33;4.60;;;3.22;;
11064;SDS011;5585;52.530;7.320;2023-09-07T10:20:58;3.70;;;3.40;;
11064;SDS011;5585;52.530;7.320;2023-09-07T10:23:34;3.58;;;3.20;;
11064;SDS011;5585;52.530;7.320;2023-09-07T10:26:02;3.92;;;3.33;;
11064;SDS011;5585;52.530;7.320;2023-09-07T10:28:30;3.30;;;3.00;;
11064;SDS011;5585;52.530;7.320;2023-09-07T10:30:57;3.45;;;3.15;;
11064;SDS011;5585;52.530;7.320;2023-09-07T10:33:25;3.63;;;3.28;;
11064;SDS011;5585;52.530;7.320;2023-09-07T10:35:52;5.47;;;3.35;;
11064;SDS011;5585;52.530;7.320;2023-09-07T10:38:18;3.38;;;3.08;;
11064;SDS011;5585;52.530;7.320;2023-09-07T10:40:45;2.97;;;2.72;;
11064;SDS011;5585;52.530;7.320;2023-09-07T10:43:11;4.32;;;3.03;;
11064;SDS011;5585;52.530;7.320;2023-09-07T10:45:38;3.67;;;3.13;;
11064;SDS011;5585;52.530;7.320;2023-09-07T10:48:05;2.90;;;2.70;;
11064;SDS011;5585;52.530;7.320;2023-09-07T10:50:43;3.08;;;2.70;;
11064;SDS011;5585;52.530;7.320;2023-09-07T10:53:11;3.33;;;3.00;;
11064;SDS011;5585;52.530;7.320;2023-09-07T10:55:38;3.83;;;3.17;;
11064;SDS011;5585;52.530;7.320;2023-09-07T10:58:05;2.95;;;2.75;;
11064;SDS011;5585;52.530;7.320;2023-09-07T11:00:31;3.35;;;3.05;;
11064;SDS011;5585;52.530;7.320;2023-09-07T11:02:58;3.33;;;3.00;;
11064;SDS011;5585;52.530;7.320;2023-09-07T11:05:25;3.33;;;2.90;;
11064;SDS011;5585;52.530;7.320;2023-09-07T11:07:53;3.42;;;3.03;;
11064;SDS011;5585;52.530;7.320;2023-09-07T11:10:20;3.65;;;2.97;;
11064;SDS011;5585;52.530;7.320;2023-09-07T11:12:46;3.10;;;2.90;;
11064;SDS011;5585;52.530;7.320;2023-09-07T11:15:13;4.55;;;3.10;;
11064;SDS011;5585;52.530;7.320;2023-09-07T11:17:40;3.45;;;3.15;;
11064;SDS011;5585;52.530;7.320;2023-09-07T11:20:07;3.42;;;3.15;;
11064;SDS011;5585;52.530;7.320;2023-09-07T11:22:35;3.35;;;3.05;;
11064;SDS011;5585;52.530;7.320;2023-09-07T11:25:05;3.33;;;3.13;;
11064;SDS011;5585;52.530;7.320;2023-09-07T11:27:32;3.30;;;3.00;;
11064;SDS011;5585;52.530;7.320;2023-09-07T11:29:58;3.10;;;2.80;;
11064;SDS011;5585;52.530;7.320;2023-09-07T11:32:32;3.38;;;3.08;;
11064;SDS011;5585;52.530;7.320;2023-09-07T11:34:59;5.05;;;3.35;;
11064;SDS011;5585;52.530;7.320;2023-09-07T11:37:25;4.55;;;3.60;;
11064;SDS011;5585;52.530;7.320;2023-09-07T11:39:52;3.63;;;3.33;;
11064;SDS011;5585;52.530;7.320;2023-09-07T11:42:20;3.30;;;2.90;;
11064;SDS011;5585;52.530;7.320;2023-09-07T11:44:46;3.15;;;2.85;;
11064;SDS011;5585;52.530;7.320;2023-09-07T11:47:13;3.15;;;2.75;;
11064;SDS011;5585;52.530;7.320;2023-09-07T11:49:39;3.25;;;3.05;;
11064;SDS011;5585;52.530;7.320;2023-09-07T11:52:06;3.55;;;3.25;;
11064;SDS011;5585;52.530;7.320;2023-09-07T11:54:32;3.28;;;2.97;;
11064;SDS011;5585;52.530;7.320;2023-09-07T11:56:59;3.67;;;3.25;;
11064;SDS011;5585;52.530;7.320;2023-09-07T11:59:27;3.28;;;3.08;;
11064;SDS011;5585;52.530;7.320;2023-09-07T12:01:54;3.22;;;2.92;;
11064;SDS011;5585;52.530;7.320;2023-09-07T12:04:21;4.22;;;3.40;;
11064;SDS011;5585;52.530;7.320;2023-09-07T12:06:47;3.42;;;3.10;;
11064;SDS011;5585;52.530;7.320;2023-09-07T12:09:14;3.92;;;3.50;;
11064;SDS011;5585;52.530;7.320;2023-09-07T12:11:42;3.17;;;2.88;;
11064;SDS011;5585;52.530;7.320;2023-09-07T12:14:08;3.20;;;2.90;;
11064;SDS011;5585;52.530;7.320;2023-09-07T12:16:36;3.72;;;3.15;;
11064;SDS011;5585;52.530;7.320;2023-09-07T12:19:03;3.20;;;3.00;;
11064;SDS011;5585;52.530;7.320;2023-09-07T12:21:30;3.45;;;3.15;;
11064;SDS011;5585;52.530;7.320;2023-09-07T12:23:56;3.00;;;2.80;;
11064;SDS011;5585;52.530;7.320;2023-09-07T12:26:23;3.35;;;3.05;;
11064;SDS011;5585;52.530;7.320;2023-09-07T12:28:49;3.60;;;3.03;;
11064;SDS011;5585;52.530;7.320;2023-09-07T12:31:16;3.75;;;3.45;;
11064;SDS011;5585;52.530;7.320;2023-09-07T12:33:43;3.10;;;2.80;;
11064;SDS011;5585;52.530;7.320;2023-09-07T12:36:10;3.90;;;3.58;;
11064;SDS011;5585;52.530;7.320;2023-09-07T12:38:37;4.03;;;3.25;;
11064;SDS011;5585;52.530;7.320;2023-09-07T12:41:03;3.08;;;2.85;;
11064;SDS011;5585;52.530;7.320;2023-09-07T12:43:30;4.35;;;2.90;;
11064;SDS011;5585;52.530;7.320;2023-09-07T12:45:57;3.65;;;3.05;;
11064;SDS011;5585;52.530;7.320;2023-09-07T12:48:24;4.13;;;3.45;;
11064;SDS011;5585;52.530;7.320;2023-09-07T12:50:51;3.60;;;3.30;;
11064;SDS011;5585;52.530;7.320;2023-09-07T12:53:18;5.13;;;3.10;;
11064;SDS011;5585;52.530;7.320;2023-09-07T12:55:44;5.40;;;3.05;;
11064;SDS011;5585;52.530;7.320;2023-09-07T12:58:11;3.63;;;3.30;;
11064;SDS011;5585;52.530;7.320;2023-09-07T13:00:37;3.80;;;3.50;;
11064;SDS011;5585;52.530;7.320;2023-09-07T13:03:04;3.47;;;3.17;;
11064;SDS011;5585;52.530;7.320;2023-09-07T13:05:31;3.60;;;3.25;;
11064;SDS011;5585;52.530;7.320;2023-09-07T13:07:59;3.28;;;2.97;;
11064;SDS011;5585;52.530;7.320;2023-09-07T13:10:27;3.38;;;3.13;;
11064;SDS011;5585;52.530;7.320;2023-09-07T13:12:54;2.90;;;2.70;;
11064;SDS011;5585;52.530;7.320;2023-09-07T13:15:21;3.10;;;2.90;;
11064;SDS011;5585;52.530;7.320;2023-09-07T13:17:47;4.25;;;3.20;;
11064;SDS011;5585;52.530;7.320;2023-09-07T13:20:14;3.22;;;2.92;;
11064;SDS011;5585;52.530;7.320;2023-09-07T13:22:41;3.13;;;2.83;;
11064;SDS011;5585;52.530;7.320;2023-09-07T13:25:09;3.33;;;3.03;;
11064;SDS011;5585;52.530;7.320;2023-09-07T13:27:36;3.10;;;2.80;;
11064;SDS011;5585;52.530;7.320;2023-09-07T13:30:02;4.55;;;2.60;;
11064;SDS011;5585;52.530;7.320;2023-09-07T13:32:29;2.97;;;2.78;;
11064;SDS011;5585;52.530;7.320;2023-09-07T13:34:57;2.97;;;2.60;;
11064;SDS011;5585;52.530;7.320;2023-09-07T13:37:24;4.00;;;2.70;;
11064;SDS011;5585;52.530;7.320;2023-09-07T13:39:55;3.25;;;2.95;;
11064;SDS011;5585;52.530;7.320;2023-09-07T13:42:24;3.30;;;2.70;;
11064;SDS011;5585;52.530;7.320;2023-09-07T13:44:51;3.75;;;2.95;;
11064;SDS011;5585;52.530;7.320;2023-09-07T13:47:18;3.13;;;2.92;;
11064;SDS011;5585;52.530;7.320;2023-09-07T13:49:44;3.28;;;2.90;;
11064;SDS011;5585;52.530;7.320;2023-09-07T13:52:11;3.50;;;3.20;;
11064;SDS011;5585;52.530;7.320;2023-09-07T13:54:38;3.40;;;3.10;;
11064;SDS011;5585;52.530;7.320;2023-09-07T13:57:05;3.55;;;2.75;;
11064;SDS011;5585;52.530;7.320;2023-09-07T13:59:33;4.18;;;3.30;;
11064;SDS011;5585;52.530;7.320;2023-09-07T14:02:01;4.38;;;3.28;;
11064;SDS011;5585;52.530;7.320;2023-09-07T14:04:27;3.50;;;2.80;;
11064;SDS011;5585;52.530;7.320;2023-09-07T14:06:56;3.20;;;2.90;;
11064;SDS011;5585;52.530;7.320;2023-09-07T14:09:22;3.78;;;2.97;;
11064;SDS011;5585;52.530;7.320;2023-09-07T14:11:49;3.03;;;2.80;;
11064;SDS011;5585;52.530;7.320;2023-09-07T14:14:15;3.72;;;3.08;;
11064;SDS011;5585;52.530;7.320;2023-09-07T14:16:44;3.00;;;2.70;;
11064;SDS011;5585;52.530;7.320;2023-09-07T14:19:11;3.17;;;2.95;;
11064;SDS011;5585;52.530;7.320;2023-09-07T14:21:37;6.10;;;3.22;;
11064;SDS011;5585;52.530;7.320;2023-09-07T14:24:04;3.20;;;2.90;;
11064;SDS011;5585;52.530;7.320;2023-09-07T14:26:30;3.28;;;2.97;;
11064;SDS011;5585;52.530;7.320;2023-09-07T14:29:00;3.30;;;3.03;;
11064;SDS011;5585;52.530;7.320;2023-09-07T14:31:26;3.40;;;3.13;;
11064;SDS011;5585;52.530;7.320;2023-09-07T14:33:54;3.80;;;3.08;;
11064;SDS011;5585;52.530;7.320;2023-09-07T14:36:21;3.85;;;2.95;;
11064;SDS011;5585;52.530;7.320;2023-09-07T14:38:47;3.85;;;3.10;;
11064;SDS011;5585;52.530;7.320;2023-09-07T14:41:14;3.00;;;2.80;;
11064;SDS011;5585;52.530;7.320;2023-09-07T14:43:44;4.15;;;2.85;;
11064;SDS011;5585;52.530;7.320;2023-09-07T14:46:10;3.28;;;2.97;;
11064;SDS011;5585;52.530;7.320;2023-09-07T14:48:37;3.63;;;2.80;;
11064;SDS011;5585;52.530;7.320;2023-09-07T14:51:04;3.10;;;2.90;;
11064;SDS011;5585;52.530;7.320;2023-09-07T14:53:31;3.20;;;3.00;;
11064;SDS011;5585;52.530;7.320;2023-09-07T14:55:57;4.68;;;3.00;;
11064;SDS011;5585;52.530;7.320;2023-09-07T14:58:24;3.33;;;3.03;;
11064;SDS011;5585;52.530;7.320;2023-09-07T15:00:50;3.38;;;3.10;;